Jardim de Piranhas, Brazil
Current Conditions -  °F | °C
As of 4:00 AM on Sunday 26 Oct 2014 (Local Time) from SBKG Reporting Station
Broken Clouds Broken Clouds  
Wind Chill: 68°   Ceiling: 900
Heat Index: 68°   Visibility: 5mi
Dew Point: 68°   Wind: 7mph
Humidity: 100%   Direction: 120°ESE
Pressure: 29.97"   Gusts: NA
Location:  6.38°S, 37.35°W
Report Text: SBKG 260700Z 12006KT 8000 SCT005 BKN009 20/20 Q1015
Loading
Personal Weather Stations






























Interactive Weather Map
Tropical Storm Tracking
New forecast layout! Learn more

10-Day Weather Forecast

Advertisements
Track Severe Weather on mobile